createdAt,value
2023-06-04T02:14:17.367Z,0.857143
2023-06-04T02:15:17.388Z,0.857143
2023-06-04T02:16:17.466Z,0.857143
2023-06-04T02:17:17.560Z,0.857143
2023-06-04T02:18:18.016Z,1.71429
2023-06-04T02:19:17.421Z,1.71429
2023-06-04T02:20:17.464Z,1.71429
2023-06-04T02:21:17.456Z,2.5
2023-06-04T02:22:17.500Z,2.5
2023-06-04T02:23:17.578Z,3.35714
2023-06-04T02:24:17.565Z,4.21429
2023-06-04T02:25:17.552Z,4.21429
2023-06-04T02:26:17.582Z,5
2023-06-04T02:27:17.626Z,5.85714
2023-06-04T02:28:17.612Z,6.71429
2023-06-04T02:29:17.624Z,7.5
2023-06-04T02:30:17.640Z,8.35714
2023-06-04T02:31:17.701Z,10
2023-06-04T02:32:17.703Z,10.8571
2023-06-04T02:33:17.778Z,11.7143
2023-06-04T02:34:17.702Z,13.3571
2023-06-04T02:35:17.718Z,15
2023-06-04T02:36:17.720Z,16.7143
2023-06-04T02:37:17.737Z,18.3571
2023-06-04T02:38:17.738Z,20
2023-06-04T02:39:17.748Z,22.5
2023-06-04T02:40:17.760Z,24.2143
2023-06-04T02:41:17.789Z,26.7143
2023-06-04T02:42:17.821Z,29.2143
2023-06-04T02:43:17.831Z,31.7143
2023-06-04T02:44:17.850Z,35
2023-06-04T02:45:17.875Z,37.5
2023-06-04T02:46:17.914Z,40.8571
2023-06-04T02:47:17.908Z,44.2143
2023-06-04T02:48:17.940Z,48.3571
2023-06-04T02:49:17.963Z,53.3571
2023-06-04T02:50:17.987Z,56.7143
2023-06-04T02:51:18.002Z,60.8571
2023-06-04T02:52:18.020Z,65
2023-06-04T02:53:18.071Z,70
2023-06-04T02:54:18.071Z,75
2023-06-04T02:55:18.052Z,80.8571
2023-06-04T02:56:18.072Z,85.8571
2023-06-04T02:57:18.076Z,91.7143
2023-06-04T02:58:17.118Z,98.3571
2023-06-04T02:59:17.096Z,104.214
2023-06-04T03:00:17.108Z,111.714
2023-06-04T03:01:17.134Z,118.357
2023-06-04T03:02:17.117Z,125.857
2023-06-04T03:03:17.339Z,133.357
2023-06-04T03:04:17.152Z,140.857
2023-06-04T03:05:17.189Z,148.357
2023-06-04T03:06:17.204Z,156.714
2023-06-04T03:07:17.223Z,165.857
2023-06-04T03:08:17.305Z,174.214
2023-06-04T03:09:17.281Z,183.357
2023-06-04T03:10:17.461Z,192.5
2023-06-04T03:11:17.304Z,201.714
2023-06-04T03:12:17.327Z,211.714
2023-06-04T03:13:17.349Z,221.714
2023-06-04T03:14:17.374Z,231.714
2023-06-04T03:15:17.387Z,241.714
2023-06-04T03:16:17.431Z,253.357
2023-06-04T03:17:17.422Z,264.214
2023-06-04T03:18:17.427Z,275.857
2023-06-04T03:19:17.438Z,287.5
2023-06-04T03:20:17.457Z,300
2023-06-04T03:21:17.465Z,313.357
2023-06-04T03:22:17.492Z,328.357
2023-06-04T03:23:17.525Z,342.5
2023-06-04T03:24:17.487Z,356.714
2023-06-04T03:25:17.495Z,371.714
2023-06-04T03:26:17.529Z,385.857
2023-06-04T03:27:17.534Z,398.357
2023-06-04T03:28:17.572Z,409.214
2023-06-04T03:29:17.592Z,420
2023-06-04T03:30:17.611Z,432.5
2023-06-04T03:31:17.653Z,445
2023-06-04T03:32:17.683Z,456.714
2023-06-04T03:33:17.683Z,468.357
2023-06-04T03:34:17.691Z,485
2023-06-04T03:35:17.740Z,492.5
2023-06-04T03:36:17.753Z,518.357
2023-06-04T03:37:17.770Z,537.5
2023-06-04T03:38:17.804Z,537.5
2023-06-04T03:39:17.802Z,553.357
2023-06-04T03:40:17.822Z,578.357
2023-06-04T03:41:17.846Z,603.357
2023-06-04T03:42:17.870Z,616.714
2023-06-04T03:43:17.867Z,644.214
2023-06-04T03:44:17.882Z,679.214
2023-06-04T03:45:17.901Z,748.357
2023-06-04T03:46:17.924Z,960
2023-06-04T03:47:17.942Z,1126.71
2023-06-04T03:48:17.935Z,979.214
2023-06-04T03:49:17.932Z,787.5
2023-06-04T03:50:17.936Z,763.357
2023-06-04T03:51:17.961Z,771.714
2023-06-04T03:52:18.003Z,772.5
2023-06-04T03:53:18.019Z,806.714
2023-06-04T03:54:18.058Z,833.357
2023-06-04T03:55:18.055Z,815.857
2023-06-04T03:56:18.102Z,811.714
2023-06-04T03:57:17.090Z,825
2023-06-04T03:58:17.120Z,834.214
2023-06-04T03:59:17.128Z,829.214
2023-06-04T04:00:17.148Z,840
2023-06-04T04:01:17.166Z,854.214
2023-06-04T04:02:17.194Z,858.357
2023-06-04T04:03:17.326Z,859.214
2023-06-04T04:04:17.246Z,863.357
2023-06-04T04:05:17.611Z,862.5
2023-06-04T04:06:17.235Z,865
2023-06-04T04:07:17.246Z,873.357
2023-06-04T04:08:17.383Z,886.714
2023-06-04T04:09:17.264Z,893.357
2023-06-04T04:10:17.284Z,890
2023-06-04T04:11:17.279Z,890.857
2023-06-04T04:12:17.331Z,891.714
2023-06-04T04:13:17.340Z,899.214
2023-06-04T04:14:17.364Z,904.214
2023-06-04T04:15:17.379Z,913.357
2023-06-04T04:16:17.519Z,915.857
2023-06-04T04:17:17.434Z,921.714
2023-06-04T04:18:17.460Z,930
2023-06-04T04:19:17.509Z,939.214
2023-06-04T04:20:17.499Z,952.5
2023-06-04T04:21:17.528Z,970
2023-06-04T04:22:17.545Z,990.857
2023-06-04T04:23:17.576Z,1009.21
2023-06-04T04:24:17.600Z,1025
2023-06-04T04:25:17.595Z,1037.5
2023-06-04T04:26:17.620Z,1050.86
2023-06-04T04:27:17.625Z,1063.36
2023-06-04T04:28:17.640Z,1076.71
2023-06-04T04:29:17.676Z,1089.21
2023-06-04T04:30:17.741Z,1100.86
2023-06-04T04:31:17.725Z,1110
2023-06-04T04:32:17.869Z,1113.36
2023-06-04T04:33:17.687Z,1115.86
2023-06-04T04:34:17.693Z,1117.5
2023-06-04T04:35:17.705Z,1124.21
2023-06-04T04:36:17.722Z,1132.5
2023-06-04T04:37:17.740Z,1140
2023-06-04T04:38:17.763Z,1147.5
2023-06-04T04:39:17.783Z,1154.21
2023-06-04T04:40:17.819Z,1160.86
2023-06-04T04:41:17.837Z,1168.36
2023-06-04T04:42:17.870Z,1177.5
2023-06-04T04:43:17.879Z,1187.5
2023-06-04T04:44:17.905Z,1215.86
2023-06-04T04:45:17.914Z,1226.71
2023-06-04T04:46:18.002Z,1215
2023-06-04T04:47:18.026Z,1229.21
2023-06-04T04:48:17.972Z,1242.5
2023-06-04T04:49:17.988Z,1249.21
2023-06-04T04:50:17.990Z,1256.71
2023-06-04T04:51:18.000Z,1269.21
2023-06-04T04:52:18.007Z,1282.5
2023-06-04T04:53:18.008Z,1281.71
2023-06-04T04:54:18.011Z,1293.36
2023-06-04T04:55:18.045Z,1300.86
2023-06-04T04:56:18.041Z,1304.21
2023-06-04T04:57:18.064Z,1309.21
2023-06-04T04:58:18.103Z,1317.5
2023-06-04T04:59:17.096Z,1320.86
2023-06-04T05:00:17.121Z,1323.36
2023-06-04T05:01:17.193Z,1330.86
2023-06-04T05:02:17.255Z,1340.86
2023-06-04T05:03:17.186Z,1380
2023-06-04T05:04:17.286Z,1550.86
2023-06-04T05:05:17.232Z,1572.5
2023-06-04T05:06:17.266Z,1452.5
2023-06-04T05:07:17.270Z,1406.71
2023-06-04T05:08:17.303Z,1640
2023-06-04T05:09:17.306Z,1890.86
2023-06-04T05:10:17.350Z,1713.36
2023-06-04T05:11:17.374Z,1499.21
2023-06-04T05:12:17.370Z,1456.71
2023-06-04T05:13:17.375Z,1443.36
2023-06-04T05:14:17.370Z,1440
2023-06-04T05:15:17.383Z,1448.36
2023-06-04T05:16:17.472Z,1457.5
2023-06-04T05:17:17.399Z,1467.5
2023-06-04T05:18:17.400Z,1480
2023-06-04T05:19:17.434Z,1511.71
2023-06-04T05:20:17.469Z,1640.86
2023-06-04T05:21:17.604Z,2013.36
2023-06-04T05:22:17.520Z,2100
2023-06-04T05:23:17.663Z,1668.36
2023-06-04T05:24:17.557Z,1540
2023-06-04T05:25:17.609Z,1549.21
2023-06-04T05:26:17.599Z,1554.21
2023-06-04T05:27:17.635Z,1560
2023-06-04T05:28:17.636Z,1567.5
2023-06-04T05:29:17.635Z,1575
2023-06-04T05:30:17.709Z,1585
2023-06-04T05:31:17.734Z,1594.21
2023-06-04T05:32:17.726Z,1604.21
2023-06-04T05:33:17.726Z,1615.86
2023-06-04T05:34:17.852Z,1627.5
2023-06-04T05:35:17.742Z,1636.71
2023-06-04T05:36:17.794Z,1645.86
2023-06-04T05:37:17.781Z,1656.71
2023-06-04T05:38:17.775Z,1671.71
2023-06-04T05:39:17.785Z,1687.5
2023-06-04T05:40:17.807Z,1699.21
2023-06-04T05:41:17.825Z,1710.86
2023-06-04T05:42:17.815Z,1722.5
2023-06-04T05:43:17.845Z,1739.21
2023-06-04T05:44:17.859Z,1754.21
2023-06-04T05:45:17.885Z,1767.5
2023-06-04T05:46:17.946Z,1782.5
2023-06-04T05:47:17.978Z,1798.36
2023-06-04T05:48:18.010Z,1818.36
2023-06-04T05:49:17.999Z,1841.71
2023-06-04T05:50:18.011Z,1866.71
2023-06-04T05:51:18.031Z,1890
2023-06-04T05:52:18.062Z,1920.86
2023-06-04T05:53:18.072Z,1975.86
2023-06-04T05:54:17.109Z,2029.21
2023-06-04T05:55:17.114Z,2100
2023-06-04T05:56:17.144Z,2499.21
2023-06-04T05:57:17.182Z,3860.86
2023-06-04T05:58:17.179Z,5345.86
2023-06-04T05:59:17.174Z,6752.5
2023-06-04T06:00:17.195Z,7094.21
2023-06-04T06:01:17.211Z,7429.21
2023-06-04T06:02:17.289Z,7566.71
2023-06-04T06:03:17.424Z,7693.36
2023-06-04T06:04:17.360Z,7792.5
2023-06-04T06:05:17.249Z,7943.36
2023-06-04T06:06:17.244Z,8099.21
2023-06-04T06:07:17.272Z,8245
2023-06-04T06:08:17.297Z,8361.71
2023-06-04T06:09:17.310Z,8450
2023-06-04T06:10:17.326Z,8542.5
2023-06-04T06:11:17.360Z,8686.71
2023-06-04T06:12:17.387Z,8792.5
2023-06-04T06:13:17.407Z,8893.36
2023-06-04T06:14:17.437Z,8954.21
2023-06-04T06:15:17.446Z,9019.21
2023-06-04T06:16:17.502Z,9076.71
2023-06-04T06:17:17.480Z,9167.5
2023-06-04T06:18:17.497Z,9233.36
2023-06-04T06:19:17.529Z,9285
2023-06-04T06:20:18.477Z,9311.71
2023-06-04T06:21:17.531Z,9391.71
2023-06-04T06:22:17.549Z,9500
2023-06-04T06:23:17.630Z,9618.36
2023-06-04T06:24:17.606Z,9680
2023-06-04T06:25:17.609Z,9758.36
2023-06-04T06:26:20.050Z,9820.86
2023-06-04T06:27:17.613Z,9866.71
2023-06-04T06:28:17.639Z,9886.71
2023-06-04T06:29:17.672Z,9868.36
2023-06-04T06:30:17.638Z,9824.21
2023-06-04T06:31:17.704Z,9770.86
2023-06-04T06:32:17.716Z,9952.5
2023-06-04T06:33:17.719Z,10042.5
2023-06-04T06:34:17.756Z,10173.4
2023-06-04T06:35:17.762Z,10315.9
2023-06-04T06:36:17.787Z,10569.2
2023-06-04T06:37:17.803Z,10793.4
2023-06-04T06:38:18.710Z,11080.9
2023-06-04T06:39:17.842Z,11353.4
2023-06-04T06:40:17.865Z,11679.2
2023-06-04T06:41:17.897Z,12028.4
2023-06-04T06:42:17.921Z,12355.9
2023-06-04T06:43:17.930Z,12522.5
2023-06-04T06:44:17.950Z,12749.2
2023-06-04T06:45:17.982Z,12928.4
2023-06-04T06:46:18.007Z,13260.9
2023-06-04T06:47:18.074Z,13786.7
2023-06-04T06:48:18.010Z,14323.4
2023-06-04T06:49:18.025Z,15187.5
2023-06-04T06:50:18.076Z,16481.7
2023-06-04T06:51:18.085Z,17729.2
2023-06-04T06:52:18.069Z,19210
2023-06-04T06:53:18.084Z,20845
2023-06-04T06:54:18.089Z,21704.2
2023-06-04T06:55:17.118Z,21651.7
2023-06-04T06:56:17.133Z,21000.9
2023-06-04T06:57:17.145Z,20210.9
2023-06-04T06:58:17.181Z,19280.9
2023-06-04T06:59:17.204Z,18192.5
2023-06-04T07:00:17.248Z,17001.7
2023-06-04T07:01:17.329Z,15416.7
2023-06-04T07:02:17.305Z,14324.2
2023-06-04T07:03:17.324Z,13768.4
2023-06-04T07:04:17.329Z,13485
2023-06-04T07:05:17.330Z,13294.2
2023-06-04T07:06:17.352Z,13093.4
2023-06-04T07:07:18.769Z,12981.7
2023-06-04T07:08:17.398Z,12958.4
2023-06-04T07:09:17.404Z,13007.5
2023-06-04T07:10:17.413Z,12955
2023-06-04T07:11:17.427Z,12942.5
2023-06-04T07:12:17.466Z,12926.7
2023-06-04T07:13:17.517Z,13010.9
2023-06-04T07:14:17.456Z,13105
2023-06-04T07:15:17.482Z,13267.5
2023-06-04T07:16:17.503Z,13486.7
2023-06-04T07:17:17.494Z,13685
2023-06-04T07:18:17.516Z,13901.7
2023-06-04T07:19:17.507Z,14145
2023-06-04T07:20:17.523Z,14475.9
2023-06-04T07:21:17.563Z,14758.4
2023-06-04T07:22:17.575Z,14991.7
2023-06-04T07:23:17.591Z,15091.7
2023-06-04T07:24:17.629Z,15130
2023-06-04T07:25:17.648Z,15127.5
2023-06-04T07:26:18.869Z,15220.9
2023-06-04T07:27:17.716Z,15434.2
2023-06-04T07:28:17.701Z,15880
2023-06-04T07:29:17.725Z,16570.9
2023-06-04T07:30:17.734Z,17400.9
2023-06-04T07:31:17.790Z,18336.7
2023-06-04T07:32:17.800Z,19294.2
2023-06-04T07:33:17.768Z,19901.7
2023-06-04T07:34:17.783Z,20354.2
2023-06-04T07:35:17.800Z,21118.4
2023-06-04T07:36:17.825Z,22032.5
2023-06-04T07:37:17.801Z,23156.7
2023-06-04T07:38:17.811Z,24206.7
2023-06-04T07:39:17.820Z,25142.5
2023-06-04T07:40:17.876Z,26420
2023-06-04T07:41:17.881Z,27805.9
2023-06-04T07:42:17.896Z,29254.2
2023-06-04T07:43:17.929Z,30267.5
2023-06-04T07:44:17.954Z,30317.5
2023-06-04T07:45:17.970Z,30097.5
2023-06-04T07:46:18.005Z,30583.4
2023-06-04T07:47:18.009Z,31017.5
2023-06-04T07:48:18.029Z,31440
2023-06-04T07:49:18.053Z,31876.7
2023-06-04T07:50:18.074Z,31990.9
2023-06-04T07:51:18.073Z,32426.7
2023-06-04T07:52:17.095Z,32853.4
2023-06-04T07:53:17.117Z,32974.2
2023-06-04T07:54:17.120Z,32710.9
2023-06-04T07:55:17.113Z,32519.2
2023-06-04T07:56:17.136Z,32170.9
2023-06-04T07:57:17.138Z,31325
2023-06-04T07:58:17.142Z,30445.9
2023-06-04T07:59:17.170Z,30408.4
2023-06-04T08:00:17.190Z,30828.4
2023-06-04T08:01:17.215Z,31427.5
2023-06-04T08:02:17.268Z,32396.7
2023-06-04T08:03:17.319Z,34025.9
2023-06-04T08:04:17.484Z,35895
2023-06-04T08:05:17.286Z,36827.5
2023-06-04T08:06:17.295Z,37528.4
2023-06-04T08:07:17.309Z,38400.9
2023-06-04T08:08:17.349Z,38886.7
2023-06-04T08:09:17.365Z,39161.7
2023-06-04T08:10:17.373Z,40159.2
2023-06-04T08:11:17.383Z,40450
2023-06-04T08:12:17.442Z,40770
2023-06-04T08:13:17.408Z,41472.5
2023-06-04T08:14:17.490Z,41423.4
2023-06-04T08:15:17.465Z,41054.2
2023-06-04T08:16:17.488Z,41224.2
2023-06-04T08:17:17.471Z,41005
2023-06-04T08:18:17.468Z,39458.4
2023-06-04T08:19:17.450Z,38436.7
2023-06-04T08:20:17.489Z,38114.2
2023-06-04T08:21:17.561Z,38881.7
2023-06-04T08:22:17.531Z,40420.9
2023-06-04T08:23:17.634Z,42480.9
2023-06-04T08:24:17.570Z,44269.2
2023-06-04T08:25:17.585Z,45053.4
2023-06-04T08:26:17.608Z,45360
2023-06-04T08:27:17.631Z,44990
2023-06-04T08:28:17.672Z,43520.9
2023-06-04T08:29:17.669Z,40505.9
2023-06-04T08:30:17.695Z,36700.9
2023-06-04T08:31:17.756Z,32885.9
2023-06-04T08:32:17.733Z,29326.7
2023-06-04T08:33:17.823Z,27145.9
2023-06-04T08:34:17.779Z,25917.5
2023-06-04T08:35:17.793Z,25292.5
2023-06-04T08:36:17.808Z,25316.7
2023-06-04T08:37:17.820Z,25552.5
2023-06-04T08:38:17.849Z,26051.7
2023-06-04T08:39:17.855Z,26258.4
2023-06-04T08:40:17.873Z,26558.4
2023-06-04T08:41:17.862Z,27726.7
2023-06-04T08:42:17.889Z,30269.2
2023-06-04T08:43:17.878Z,33413.4
2023-06-04T08:44:17.905Z,37020
2023-06-04T08:45:17.917Z,41858.4
2023-06-04T08:46:17.964Z,46795
2023-06-04T08:47:17.967Z,50010
2023-06-04T08:48:17.985Z,52513.4
2023-06-04T08:49:18.015Z,52756.7
2023-06-04T08:50:18.038Z,50848.4
2023-06-04T08:51:18.065Z,48202.5
2023-06-04T08:52:17.085Z,45879.2
2023-06-04T08:53:17.194Z,30480.9
2023-06-04T08:54:17.134Z,7384.21
2023-06-04T08:55:17.160Z,2695
2023-06-04T08:56:17.167Z,2640
2023-06-04T08:57:17.192Z,2605.86
2023-06-04T08:58:17.217Z,2588.36
2023-06-04T08:59:17.235Z,2578.36
2023-06-04T09:00:17.245Z,2556.71
2023-06-04T09:01:17.351Z,2551.71
2023-06-04T09:02:17.304Z,2540.86
2023-06-04T09:03:17.358Z,2525
2023-06-04T09:04:17.417Z,2516.71
2023-06-04T09:05:17.322Z,2509.21
2023-06-04T09:06:17.336Z,2500
2023-06-04T09:07:17.346Z,2492.5
2023-06-04T09:08:17.351Z,2485.86
2023-06-04T09:09:17.419Z,2469.21
2023-06-04T09:10:17.421Z,2460.86
2023-06-04T09:11:17.399Z,2449.21
2023-06-04T09:12:17.397Z,2435.86
2023-06-04T09:13:17.437Z,2429.21
2023-06-04T09:14:17.567Z,2414.21
2023-06-04T09:15:17.482Z,2395.86
2023-06-04T09:16:17.597Z,2379.21
2023-06-04T09:17:17.515Z,2369.21
2023-06-04T09:18:17.521Z,2356.71
2023-06-04T09:19:17.566Z,2349.21
2023-06-04T09:20:17.619Z,2340.86
2023-06-04T09:21:17.576Z,2333.36
2023-06-04T09:22:17.576Z,2325.86
2023-06-04T09:23:17.695Z,2318.36
2023-06-04T09:24:17.635Z,2310
2023-06-04T09:25:17.655Z,2305
2023-06-04T09:26:17.637Z,2295.86
2023-06-04T09:27:17.673Z,2293.36
2023-06-04T09:28:17.641Z,2276.71
2023-06-04T09:29:17.654Z,2267.5
2023-06-04T09:30:17.675Z,2258.36
2023-06-04T09:31:17.758Z,2248.36
2023-06-04T09:32:17.721Z,2245
2023-06-04T09:33:17.741Z,2229.21
2023-06-04T09:34:17.765Z,2222.5
2023-06-04T09:35:17.784Z,2215.86
2023-06-04T09:36:17.803Z,2207.5
2023-06-04T09:37:17.821Z,2200
2023-06-04T09:38:17.886Z,2192.5
2023-06-04T09:39:17.935Z,2186.71
2023-06-04T09:40:17.889Z,2175.86
2023-06-04T09:41:17.973Z,2170
2023-06-04T09:42:17.956Z,2166.71
2023-06-04T09:43:17.959Z,2160.86
2023-06-04T09:44:17.982Z,2154.21
2023-06-04T09:45:17.981Z,2154.21
2023-06-04T09:46:18.048Z,2140
2023-06-04T09:47:18.044Z,2128.36
2023-06-04T09:48:18.071Z,2124.21
2023-06-04T09:49:18.022Z,2118.36
2023-06-04T09:50:18.149Z,2110.86
2023-06-04T09:51:18.045Z,2107.5
2023-06-04T09:52:18.093Z,2100
2023-06-04T09:53:18.069Z,2093.36
2023-06-04T09:54:17.084Z,2088.36
2023-06-04T09:55:17.112Z,2080.86
2023-06-04T09:56:17.137Z,2074.21
2023-06-04T09:57:17.168Z,2068.36
2023-06-04T09:58:17.197Z,2062.5
2023-06-04T09:59:17.207Z,2055.86
2023-06-04T10:00:17.239Z,2050.86
2023-06-04T10:01:17.270Z,2046.71
2023-06-04T10:02:17.272Z,2041.71
2023-06-04T10:03:17.363Z,2035.86
2023-06-04T10:04:17.309Z,2030
2023-06-04T10:05:17.352Z,2019.21
2023-06-04T10:06:17.341Z,2014.21
2023-06-04T10:07:17.350Z,2007.5
2023-06-04T10:08:17.373Z,1998.36
2023-06-04T10:09:17.393Z,1990.86
2023-06-04T10:10:17.546Z,1985.86
2023-06-04T10:11:17.405Z,1976.71
2023-06-04T10:12:17.421Z,1965.86
2023-06-04T10:13:17.424Z,1963.36
2023-06-04T10:14:17.441Z,1953.36
2023-06-04T10:15:17.438Z,1943.36
2023-06-04T10:16:29.192Z,1936.71
2023-06-04T10:17:17.497Z,1925.86
2023-06-04T10:18:17.647Z,1915
2023-06-04T10:19:17.539Z,1905
2023-06-04T10:20:17.558Z,1897.5
2023-06-04T10:21:18.525Z,1887.5
2023-06-04T10:22:17.583Z,1877.5
2023-06-04T10:23:17.620Z,1870.86
2023-06-04T10:24:17.632Z,1860.86
2023-06-04T10:25:17.674Z,1856.71
2023-06-04T10:26:17.665Z,1844.21
2023-06-04T10:27:18.838Z,1835.86
2023-06-04T10:28:17.714Z,1829.21
2023-06-04T10:29:17.747Z,1821.71
2023-06-04T10:30:17.789Z,1815
2023-06-04T10:31:17.768Z,1809.21
2023-06-04T10:32:17.790Z,1803.36
2023-06-04T10:33:19.462Z,1796.71
2023-06-04T10:34:17.813Z,1791.71
2023-06-04T10:35:17.830Z,1785.86
2023-06-04T10:36:17.841Z,1781.71
2023-06-04T10:37:17.844Z,1775
2023-06-04T10:38:17.840Z,1770
2023-06-04T10:39:17.919Z,1764.21
2023-06-04T10:40:17.895Z,1760
2023-06-04T10:41:17.898Z,1750.86
2023-06-04T10:42:17.916Z,1743.36
2023-06-04T10:43:17.952Z,1735
2023-06-04T10:44:17.973Z,1725.86
2023-06-04T10:45:17.992Z,1719.21
2023-06-04T10:46:18.064Z,1712.5
2023-06-04T10:47:18.036Z,1703.36
2023-06-04T10:48:18.066Z,1701.71
2023-06-04T10:49:18.090Z,1693.36
2023-06-04T10:50:17.223Z,1685
2023-06-04T10:51:17.130Z,1678.36
2023-06-04T10:52:17.147Z,1670.86
2023-06-04T10:53:17.158Z,1663.36
2023-06-04T10:54:17.168Z,1660.86
2023-06-04T10:55:17.193Z,1656.71
2023-06-04T10:56:17.224Z,1653.36
2023-06-04T10:57:17.221Z,1644.21
2023-06-04T10:58:17.253Z,1637.5
2023-06-04T10:59:17.244Z,1635
2023-06-04T11:00:17.245Z,1631.71
2023-06-04T11:01:17.299Z,1626.71
2023-06-04T11:02:17.243Z,1621.71
2023-06-04T11:03:17.323Z,1616.71
2023-06-04T11:04:17.372Z,1610.86
2023-06-04T11:05:17.321Z,1605.86
2023-06-04T11:06:17.351Z,1600.86
2023-06-04T11:07:17.364Z,1595.86
2023-06-04T11:08:17.382Z,1590
2023-06-04T11:09:17.415Z,1582.5
2023-06-04T11:10:17.433Z,1575
2023-06-04T11:11:17.462Z,1569.21
2023-06-04T11:12:17.478Z,1565
2023-06-04T11:13:17.492Z,1558.36
2023-06-04T11:14:17.514Z,1551.71
2023-06-04T11:15:17.545Z,1546.71
2023-06-04T11:16:17.689Z,1540
2023-06-04T11:17:17.577Z,1535.86
2023-06-04T11:18:17.641Z,1531.71
2023-06-04T11:19:17.667Z,1524.21
2023-06-04T11:20:17.602Z,1517.5
2023-06-04T11:21:17.612Z,1511.71
2023-06-04T11:22:17.617Z,1505.86
2023-06-04T11:23:17.663Z,1500.86
2023-06-04T11:24:17.631Z,1495
2023-06-04T11:25:17.632Z,1490.86
2023-06-04T11:26:17.647Z,1486.71
2023-06-04T11:27:28.126Z,1482.5
2023-06-04T11:28:17.689Z,1478.36
2023-06-04T11:29:17.713Z,1472.5
2023-06-04T11:30:17.741Z,1468.36
2023-06-04T11:31:17.783Z,1464.21
2023-06-04T11:32:17.781Z,1459.21
2023-06-04T11:33:17.800Z,1455
2023-06-04T11:34:17.823Z,1450.86
2023-06-04T11:35:17.842Z,1446.71
2023-06-04T11:36:17.849Z,1442.5
2023-06-04T11:37:17.877Z,1437.5
2023-06-04T11:38:17.879Z,1432.5
2023-06-04T11:39:17.906Z,1427.5
2023-06-04T11:40:17.922Z,1425
2023-06-04T11:41:17.943Z,1419.21
2023-06-04T11:42:17.949Z,1414.21
2023-06-04T11:43:17.958Z,1408.36
2023-06-04T11:44:17.970Z,1404.21
2023-06-04T11:45:17.985Z,1400
2023-06-04T11:46:17.999Z,1394.21
2023-06-04T11:47:18.003Z,1389.21
2023-06-04T11:48:18.133Z,1384.21
2023-06-04T11:49:18.124Z,1381.71
2023-06-04T11:50:18.043Z,1377.5
2023-06-04T11:51:18.075Z,1373.36
2023-06-04T11:52:17.105Z,1367.5
2023-06-04T11:53:17.123Z,1363.36
2023-06-04T11:54:17.162Z,1359.21
2023-06-04T11:55:17.170Z,1355
2023-06-04T11:56:17.205Z,1350.86
2023-06-04T11:57:17.221Z,1345
2023-06-04T11:58:17.244Z,1341.71
2023-06-04T11:59:17.276Z,1337.5
2023-06-04T12:00:17.273Z,1333.36
2023-06-04T12:01:17.305Z,1329.21
2023-06-04T12:02:17.384Z,1325
2023-06-04T12:03:17.354Z,1320.86
2023-06-04T12:04:17.388Z,1315.86
2023-06-04T12:05:17.365Z,1310.86
2023-06-04T12:06:17.708Z,1307.5
2023-06-04T12:07:17.377Z,1302.5
2023-06-04T12:08:17.394Z,1297.5
2023-06-04T12:09:17.433Z,1292.5
2023-06-04T12:10:17.444Z,1289.21
2023-06-04T12:11:17.428Z,1283.36
2023-06-04T12:12:17.425Z,1277.5
2023-06-04T12:13:17.441Z,1270.86
2023-06-04T12:14:17.495Z,1270
2023-06-04T12:15:17.556Z,1265.86
2023-06-04T12:16:17.562Z,1259.21
2023-06-04T12:17:17.625Z,1255
2023-06-04T12:18:17.591Z,1250
2023-06-04T12:19:17.615Z,1245
2023-06-04T12:20:17.618Z,1240.86
2023-06-04T12:21:17.630Z,1235
2023-06-04T12:22:17.648Z,1230
2023-06-04T12:23:17.704Z,1224.21
2023-06-04T12:24:17.686Z,1220
2023-06-04T12:25:17.713Z,1216.71
2023-06-04T12:26:17.717Z,1212.5
2023-06-04T12:27:17.736Z,1207.5
2023-06-04T12:28:17.766Z,1203.36
2023-06-04T12:29:17.760Z,1200.86
2023-06-04T12:30:17.786Z,1196.71
2023-06-04T12:31:17.808Z,1195
2023-06-04T12:32:17.786Z,1189.21
2023-06-04T12:33:17.782Z,1186.71
2023-06-04T12:34:17.805Z,1183.36
2023-06-04T12:35:17.846Z,1179.21
2023-06-04T12:36:17.849Z,1176.71
2023-06-04T12:37:17.878Z,1173.36
2023-06-04T12:38:17.900Z,1169.21
2023-06-04T12:39:17.908Z,1165.86
2023-06-04T12:40:17.933Z,1161.71
2023-06-04T12:41:17.955Z,1158.36
2023-06-04T12:42:17.976Z,1155
2023-06-04T12:43:18.008Z,1153.36
2023-06-04T12:44:18.016Z,1150.86
2023-06-04T12:45:18.022Z,1148.36
2023-06-04T12:46:18.063Z,1145.86
2023-06-04T12:47:18.230Z,1143.36
2023-06-04T12:48:18.069Z,1141.71
2023-06-04T12:49:17.091Z,1139.21
2023-06-04T12:50:17.295Z,1136.71
2023-06-04T12:51:17.104Z,1134.21
2023-06-04T12:52:17.120Z,1131.71
2023-06-04T12:53:17.132Z,1129.21
2023-06-04T12:54:17.138Z,1127.5
2023-06-04T12:55:17.138Z,1125
2023-06-04T12:56:17.199Z,1123.36
2023-06-04T12:57:17.428Z,1120.86
2023-06-04T12:58:17.212Z,1120
2023-06-04T12:59:17.238Z,1117.5
2023-06-04T13:00:17.256Z,1115.86
2023-06-04T13:01:17.283Z,1115
2023-06-04T13:02:17.331Z,1114.21
2023-06-04T13:03:17.399Z,1113.36
2023-06-04T13:04:17.388Z,1112.5
2023-06-04T13:05:17.354Z,1110.86
2023-06-04T13:06:17.421Z,1109.21
2023-06-04T13:07:17.394Z,1107.5
2023-06-04T13:08:17.420Z,1105
2023-06-04T13:09:17.471Z,1103.36
2023-06-04T13:10:17.455Z,1100.86
2023-06-04T13:11:17.465Z,1099.21
2023-06-04T13:12:17.491Z,1096.71
2023-06-04T13:13:17.501Z,1095
2023-06-04T13:14:17.504Z,1093.36
2023-06-04T13:15:17.523Z,1090
2023-06-04T13:16:17.621Z,1087.5
2023-06-04T13:17:22.608Z,1085.86
2023-06-04T13:18:17.535Z,1082.5
2023-06-04T13:19:17.581Z,1080.86
2023-06-04T13:20:17.585Z,1080
2023-06-04T13:21:17.617Z,1079.21
2023-06-04T13:22:17.643Z,1078.36
2023-06-04T13:23:17.734Z,1077.5
2023-06-04T13:24:17.730Z,1075.86
2023-06-04T13:25:17.687Z,1075.86
2023-06-04T13:26:17.711Z,1075
2023-06-04T13:27:17.771Z,1074.21
2023-06-04T13:28:17.748Z,1073.36
2023-06-04T13:29:17.797Z,1074.21
2023-06-04T13:30:17.835Z,1073.36
2023-06-04T13:31:17.820Z,1073.36
2023-06-04T13:32:17.968Z,1072.5
2023-06-04T13:33:17.840Z,1071.71
2023-06-04T13:35:17.868Z,1069.21
2023-06-04T13:36:17.891Z,1066.71
2023-06-04T13:37:17.884Z,1064.21
2023-06-04T13:38:17.910Z,1062.5
2023-06-04T13:39:17.952Z,1061.71
2023-06-04T13:40:17.922Z,1060
2023-06-04T13:41:17.937Z,1058.36
2023-06-04T13:42:17.928Z,1056.71
2023-06-04T13:43:17.953Z,1054.21
2023-06-04T13:44:17.994Z,1052.5
2023-06-04T13:45:18.005Z,1050
2023-06-04T13:46:18.059Z,1046.71
2023-06-04T13:47:18.052Z,1044.21
2023-06-04T13:48:18.125Z,1041.71
2023-06-04T13:49:17.101Z,1038.36
2023-06-04T13:50:17.151Z,1034.21
2023-06-04T13:51:17.156Z,1031.71
2023-06-04T13:52:17.192Z,1028.36
2023-06-04T13:53:17.207Z,1025
2023-06-04T13:54:17.227Z,1020.86
2023-06-04T13:55:17.272Z,1018.36
2023-06-04T13:56:17.279Z,1015
2023-06-04T13:57:17.316Z,1011.71
2023-06-04T13:58:17.321Z,1008.36
2023-06-04T13:59:17.323Z,1006.71
2023-06-04T14:00:17.354Z,1004.21
2023-06-04T14:01:17.400Z,1001.71
2023-06-04T14:02:17.451Z,999.214
2023-06-04T14:03:17.535Z,996.714
2023-06-04T14:04:17.378Z,994.214
2023-06-04T14:05:17.390Z,992.5
2023-06-04T14:06:17.403Z,990
2023-06-04T14:07:17.396Z,988.357
2023-06-04T14:08:17.423Z,985
2023-06-04T14:09:17.452Z,983.357
2023-06-04T14:10:17.479Z,980.857
2023-06-04T14:11:17.507Z,978.357
2023-06-04T14:12:17.535Z,975.857
2023-06-04T14:13:17.552Z,973.357
2023-06-04T14:14:17.582Z,971.714
2023-06-04T14:15:17.603Z,968.357
2023-06-04T14:16:17.711Z,966.714
2023-06-04T14:17:17.657Z,964.214
2023-06-04T14:18:17.673Z,961.714
2023-06-04T14:19:17.697Z,960
2023-06-04T14:20:17.713Z,956.714
2023-06-04T14:21:17.729Z,955
2023-06-04T14:22:17.748Z,952.5
2023-06-04T14:23:17.806Z,951.714
2023-06-04T14:24:17.785Z,948.357
2023-06-04T14:25:17.791Z,947.5
2023-06-04T14:26:17.805Z,945.857
2023-06-04T14:27:17.805Z,944.214
2023-06-04T14:28:17.829Z,942.5
2023-06-04T14:29:17.826Z,941.714
2023-06-04T14:30:17.843Z,940.857
2023-06-04T14:31:17.866Z,939.214
2023-06-04T14:32:17.855Z,938.357
2023-06-04T14:33:17.931Z,938.357
2023-06-04T14:34:17.916Z,936.714
2023-06-04T14:35:17.946Z,935.857